Time;durP1;ratioP1;P1;durP2;ratioP2;P2;SDS_P1;SDS_P2;PMS_P1;PMS_P2;Temp;Humidity;BMP_temperature;BMP_pressure;BME280_temperature;BME280_humidity;BME280_pressure;Samples;Min_cycle;Max_cycle;Signal;HPM_P1;HPM_P2
2022/12/13 00:00:37;;;;;;;7.47;1.73;;;;;;;;;;20898637;28;20291;-64
2022/12/13 00:10:39;;;;;;;2.13;1.67;;;;;;;;;;20881863;28;20221;-64
2022/12/13 00:20:42;;;;;;;1.83;1.73;;;;;;;;;;20880385;28;20230;-63
2022/12/13 00:30:43;;;;;;;3.40;2.43;;;;;;;;;;20870044;28;20280;-64
2022/12/13 00:40:46;;;;;;;1.47;1.37;;;-4.80;99.90;;;;;;20939347;28;20230;-64
2022/12/13 00:50:48;;;;;;;1.30;1.20;;;;;;;;;;20944276;28;20213;-64
2022/12/13 01:00:49;;;;;;;2.57;2.00;;;;;;;;;;20960881;28;20263;-64
2022/12/13 01:10:51;;;;;;;2.17;1.70;;;;;;;;;;20943226;28;20570;-64
2022/12/13 01:21:00;;;;;;;2.23;1.60;;;-2.90;99.90;;;;;;20942682;28;20225;-64
2022/12/13 01:31:05;;;;;;;3.50;2.20;;;-2.90;99.90;;;;;;20958528;28;20216;-64
2022/12/13 01:41:08;;;;;;;2.40;2.20;;;-3.20;99.90;;;;;;20956069;28;20237;-64
2022/12/13 01:51:12;;;;;;;1.67;1.40;;;;;;;;;;20955956;28;20286;-64
2022/12/13 02:01:14;;;;;;;1.47;1.37;;;;;;;;;;20939410;28;20275;-64
2022/12/13 02:11:16;;;;;;;3.67;2.57;;;;;;;;;;20908078;28;20222;-64
2022/12/13 02:21:18;;;;;;;1.67;1.40;;;;;;;;;;20855810;28;20221;-64
2022/12/13 02:31:40;;;;;;;2.03;1.50;;;;;;;;;;20854527;28;20221;-64
2022/12/13 02:41:48;;;;;;;1.63;1.47;;;;;;;;;;20847433;28;20214;-64
2022/12/13 02:51:51;;;;;;;1.50;1.13;;;;;;;;;;20908857;28;20631;-64
2022/12/13 03:02:16;;;;;;;3.30;2.47;;;-3.20;99.90;;;;;;20926893;28;20251;-64
2022/12/13 03:23:01;;;;;;;1.63;1.53;;;;;;;;;;20953149;28;20225;-64
2022/12/13 03:33:04;;;;;;;2.00;1.63;;;;;;;;;;20949006;28;20308;-64
2022/12/13 03:43:06;;;;;;;1.50;1.10;;;;;;;;;;20926067;28;20617;-64
2022/12/13 03:53:07;;;;;;;1.83;1.50;;;;;;;;;;20933636;28;20769;-64
2022/12/13 04:03:10;;;;;;;1.50;1.03;;;;;;;;;;20949432;28;20799;-64
2022/12/13 04:23:32;;;;;;;1.27;1.17;;;;;;;;;;20949978;28;20816;-64
2022/12/13 04:33:33;;;;;;;2.87;1.60;;;;;;;;;;20920347;28;20260;-64
2022/12/13 04:43:35;;;;;;;3.30;1.47;;;;;;;;;;20846174;28;20218;-65
2022/12/13 04:53:37;;;;;;;1.33;1.20;;;-3.50;99.90;;;;;;20938861;28;20279;-65
2022/12/13 05:03:39;;;;;;;0.63;0.63;;;;;;;;;;20866916;28;20295;-69
2022/12/13 05:13:41;;;;;;;1.10;1.00;;;;;;;;;;20861377;28;20205;-64
2022/12/13 05:23:43;;;;;;;1.87;1.50;;;;;;;;;;20872435;28;20583;-64
2022/12/13 05:33:45;;;;;;;2.60;1.50;;;;;;;;;;20882833;28;20242;-64
2022/12/13 05:43:47;;;;;;;1.77;1.17;;;;;;;;;;20858803;28;20280;-64
2022/12/13 05:53:49;;;;;;;1.10;0.80;;;;;;;;;;20917308;28;20225;-64
2022/12/13 06:03:51;;;;;;;1.37;1.27;;;;;;;;;;20925400;28;20362;-64
2022/12/13 06:13:53;;;;;;;1.93;1.70;;;;;;;;;;20932425;28;20206;-64
2022/12/13 06:23:55;;;;;;;1.67;1.23;;;;;;;;;;20864120;28;20238;-64
2022/12/13 06:34:01;;;;;;;1.37;0.87;;;-4.10;99.90;;;;;;20854554;28;20229;-64
2022/12/13 06:44:03;;;;;;;1.13;1.00;;;;;;;;;;20854318;28;20300;-64
2022/12/13 06:54:05;;;;;;;1.87;1.70;;;;;;;;;;20853413;28;20263;-65
2022/12/13 07:04:08;;;;;;;0.93;0.93;;;;;;;;;;20853590;28;20271;-64
2022/12/13 07:14:11;;;;;;;2.53;1.40;;;;;;;;;;20876498;28;20227;-64
2022/12/13 07:24:13;;;;;;;1.00;0.90;;;;;;;;;;20926018;28;20550;-64
2022/12/13 07:34:15;;;;;;;1.13;1.03;;;;;;;;;;20966488;28;20236;-64
2022/12/13 07:44:17;;;;;;;1.57;1.40;;;;;;;;;;20890268;28;20220;-64
2022/12/13 07:54:18;;;;;;;1.17;1.07;;;;;;;;;;20950782;28;20213;-64
2022/12/13 08:04:20;;;;;;;2.00;1.20;;;;;;;;;;20947696;28;20217;-63
2022/12/13 08:14:22;;;;;;;1.10;1.00;;;;;;;;;;20947347;28;20647;-64
2022/12/13 08:24:24;;;;;;;1.43;1.13;;;;;;;;;;20946582;28;20596;-64
2022/12/13 08:34:30;;;;;;;0.80;0.77;;;;;;;;;;20894485;28;20241;-64
2022/12/13 08:44:32;;;;;;;1.73;1.37;;;;;;;;;;20874622;28;20594;-64
2022/12/13 08:54:34;;;;;;;1.50;1.37;;;;;;;;;;20861069;28;20260;-64
2022/12/13 09:04:37;;;;;;;1.33;1.23;;;;;;;;;;20874652;28;20700;-65
2022/12/13 09:14:40;;;;;;;1.67;1.57;;;;;;;;;;20874313;28;20297;-65
2022/12/13 09:24:42;;;;;;;1.53;1.27;;;;;;;;;;20873467;28;20241;-65
2022/12/13 09:34:44;;;;;;;1.00;0.90;;;;;;;;;;20870351;28;20237;-65
2022/12/13 09:44:50;;;;;;;1.50;1.40;;;;;;;;;;20867983;28;20221;-65
2022/12/13 09:54:54;;;;;;;2.13;1.47;;;;;;;;;;20864824;28;20226;-65
2022/12/13 10:05:11;;;;;;;1.67;1.57;;;;;;;;;;20847529;28;20206;-65
2022/12/13 10:15:16;;;;;;;1.47;1.33;;;;;;;;;;20848991;28;20416;-65
2022/12/13 10:25:38;;;;;;;2.47;1.73;;;;;;;;;;20863426;28;20696;-65
2022/12/13 10:35:40;;;;;;;2.23;1.70;;;;;;;;;;20847029;28;20229;-63
2022/12/13 10:45:43;;;;;;;1.67;1.33;;;;;;;;;;20882901;28;20264;-63
2022/12/13 10:55:45;;;;;;;1.40;1.30;;;;;;;;;;20851149;28;20214;-63
2022/12/13 11:06:21;;;;;;;1.77;1.10;;;-2.70;99.90;;;;;;20866105;28;20229;-66
2022/12/13 11:16:31;;;;;;;1.40;1.30;;;-2.70;99.90;;;;;;20871049;28;20241;-66
2022/12/13 11:26:35;;;;;;;1.17;0.90;;;;;;;;;;20884078;28;20705;-63
2022/12/13 11:37:03;;;;;;;1.80;1.17;;;-2.60;99.90;;;;;;20867240;28;20268;-63
2022/12/13 11:47:05;;;;;;;1.03;0.87;;;;;;;;;;20881576;28;20692;-63
2022/12/13 11:57:13;;;;;;;1.37;1.20;;;;;;;;;;20864885;28;20194;-63
2022/12/13 12:07:17;;;;;;;2.30;1.90;;;;;;;;;;20878702;28;20221;-63
2022/12/13 12:17:22;;;;;;;1.43;1.33;;;;;;;;;;20862909;28;20206;-64
2022/12/13 12:27:27;;;;;;;2.20;1.93;;;;;;;;;;20863262;28;20651;-66
2022/12/13 12:37:29;;;;;;;1.57;1.20;;;;;;;;;;20857992;28;20221;-64
2022/12/13 12:47:33;;;;;;;1.83;1.60;;;;;;;;;;20855459;28;20268;-66
2022/12/13 12:58:00;;;;;;;1.50;1.40;;;-2.20;99.90;;;;;;20889966;28;20261;-65
2022/12/13 13:08:05;;;;;;;2.03;1.70;;;;;;;;;;20869158;28;20222;-65
2022/12/13 13:18:26;;;;;;;1.60;1.50;;;;;;;;;;20869059;28;20226;-65
2022/12/13 13:28:28;;;;;;;2.33;1.77;;;;;;;;;;20857280;28;20222;-65
2022/12/13 13:38:52;;;;;;;2.30;2.10;;;-2.30;99.90;;;;;;20917545;28;20635;-66
2022/12/13 13:49:03;;;;;;;2.23;1.53;;;;;;;;;;20940028;28;20221;-66
2022/12/13 13:59:24;;;;;;;1.83;1.60;;;;;;;;;;20954993;28;20220;-66
2022/12/13 14:09:29;;;;;;;2.80;1.93;;;;;;;;;;20938818;28;20279;-66
2022/12/13 14:19:51;;;;;;;1.73;1.60;;;;;;;;;;20938962;28;20514;-66
2022/12/13 14:29:53;;;;;;;1.63;1.43;;;-2.40;99.90;;;;;;20937265;28;20216;-66
2022/12/13 14:39:56;;;;;;;2.00;1.80;;;-2.50;99.90;;;;;;20952980;28;20255;-66
2022/12/13 14:49:58;;;;;;;2.47;1.47;;;;;;;;;;20940503;23;20246;-68
2022/12/13 15:00:20;;;;;;;2.33;1.37;;;-2.60;99.90;;;;;;20859484;28;20291;-65
2022/12/13 15:10:37;;;;;;;1.63;1.47;;;-2.80;99.90;;;;;;20892991;28;20218;-66
2022/12/13 15:20:40;;;;;;;0.53;0.50;;;;;;;;;;20869886;28;20236;-68
2022/12/13 15:30:44;;;;;;;2.00;1.30;;;;;;;;;;20846555;28;20214;-67
2022/12/13 15:40:48;;;;;;;1.30;1.20;;;-2.70;99.90;;;;;;20871747;28;20276;-68
2022/12/13 15:50:50;;;;;;;1.47;1.03;;;;;;;;;;20875440;28;20218;-65
2022/12/13 16:00:51;;;;;;;2.07;1.87;;;;;;;;;;20892006;28;20272;-65
2022/12/13 16:10:54;;;;;;;2.07;1.60;;;;;;;;;;20906444;28;20237;-66
2022/12/13 16:20:57;;;;;;;0.80;0.80;;;;;;;;;;20887462;28;20214;-66
2022/12/13 16:31:09;;;;;;;3.03;2.17;;;;;;;;;;20888013;28;20626;-71
2022/12/13 16:41:10;;;;;;;4.63;3.37;;;;;;;;;;20855995;28;20273;-67
2022/12/13 16:51:12;;;;;;;1.10;0.93;;;;;;;;;;20837125;28;20297;-71
2022/12/13 17:01:15;;;;;;;2.90;2.37;;;;;;;;;;20861749;28;20182;-68
2022/12/13 17:11:16;;;;;;;2.90;1.70;;;;;;;;;;20792421;28;20767;-70
2022/12/13 17:21:18;;;;;;;1.97;1.80;;;;;;;;;;20812412;28;20195;-68
2022/12/13 17:31:21;;;;;;;2.87;1.83;;;-2.90;99.90;;;;;;20817630;28;20755;-67
2022/12/13 17:41:23;;;;;;;1.67;1.57;;;;;;;;;;20819583;28;20191;-67
2022/12/13 17:51:24;;;;;;;2.07;1.87;;;;;;;;;;20827733;28;20769;-67
2022/12/13 18:01:26;;;;;;;1.63;1.13;;;;;;;;;;20820318;28;20252;-67
2022/12/13 18:11:29;;;;;;;0.73;0.73;;;;;;;;;;20813796;28;20238;-67
2022/12/13 18:21:30;;;;;;;2.03;1.57;;;;;;;;;;20794544;28;20326;-69
2022/12/13 18:31:32;;;;;;;1.17;1.00;;;;;;;;;;20823508;28;20302;-67
2022/12/13 18:41:34;;;;;;;1.53;1.23;;;;;;;;;;20871951;28;20242;-67
2022/12/13 18:51:36;;;;;;;0.70;0.60;;;;;;;;;;20811625;28;20214;-71
2022/12/13 19:01:38;;;;;;;1.47;1.00;;;;;;;;;;20809054;28;20269;-68
2022/12/13 19:11:40;;;;;;;1.37;0.93;;;;;;;;;;20809702;28;20198;-69
2022/12/13 19:21:42;;;;;;;0.90;0.70;;;;;;;;;;20792411;28;20658;-69
2022/12/13 19:31:45;;;;;;;2.40;1.77;;;;;;;;;;20810484;28;20206;-68
2022/12/13 19:41:47;;;;;;;0.97;0.80;;;;;;;;;;20849207;28;20222;-68
2022/12/13 19:51:49;;;;;;;1.37;0.90;;;;;;;;;;20886165;28;20210;-69
2022/12/13 20:01:50;;;;;;;2.50;1.70;;;;;;;;;;20898453;28;20202;-67
2022/12/13 20:11:52;;;;;;;1.70;0.87;;;;;;;;;;20906122;28;20272;-67
2022/12/13 20:21:54;;;;;;;1.70;1.23;;;;;;;;;;20905595;28;20228;-69
2022/12/13 20:31:56;;;;;;;0.50;0.50;;;;;;;;;;20856965;28;20257;-67
2022/12/13 20:41:58;;;;;;;1.37;1.27;;;;;;;;;;20833314;28;20304;-70
2022/12/13 20:52:00;;;;;;;1.30;0.80;;;;;;;;;;21027368;22;20305;-64
2022/12/13 21:02:01;;;;;;;1.40;1.17;;;;;;;;;;21013023;28;20242;-64
2022/12/13 21:12:03;;;;;;;0.77;0.77;;;;;;;;;;21005994;28;20273;-63
2022/12/13 21:22:05;;;;;;;1.10;1.00;;;;;;;;;;21037103;28;20232;-64
2022/12/13 21:32:07;;;;;;;1.43;1.13;;;;;;;;;;21037115;28;20230;-64
2022/12/13 21:42:10;;;;;;;1.30;1.20;;;;;;;;;;21052359;28;20586;-64
2022/12/13 21:52:12;;;;;;;2.03;1.83;;;;;;;;;;21034898;28;20309;-64
2022/12/13 22:02:15;;;;;;;1.37;1.13;;;;;;;;;;21010332;28;20246;-64
2022/12/13 22:12:19;;;;;;;2.40;1.50;;;-2.70;99.90;;;;;;21038551;28;20204;-64
2022/12/13 22:22:22;;;;;;;1.80;1.50;;;-2.70;99.90;;;;;;21012033;28;20251;-64
2022/12/13 22:32:25;;;;;;;1.80;1.27;;;;;;;;;;20881910;28;20221;-64
2022/12/13 22:42:27;;;;;;;1.50;1.00;;;;;;;;;;20864379;28;20232;-64
2022/12/13 22:52:29;;;;;;;3.37;1.60;;;;;;;;;;21010484;28;20228;-64
2022/12/13 23:02:31;;;;;;;1.23;1.13;;;;;;;;;;21034484;28;20687;-64
2022/12/13 23:22:54;;;;;;;1.23;1.13;;;;;;;;;;20900618;28;20230;-63
2022/12/13 23:32:56;;;;;;;2.03;1.23;;;;;;;;;;20867959;28;20206;-63
2022/12/13 23:42:58;;;;;;;1.40;1.00;;;;;;;;;;20884043;28;20642;-63
2022/12/13 23:52:59;;;;;;;1.40;1.00;;;;;;;;;;20867247;28;20218;-63
